Latest Weather Observations for Newdegate

IDW60801

Issued at 5:03 pm WST Thursday 27 April 2017 (issued every 30 minutes, with the page automatically refreshed every 10 minutes)

About weather observations | Map of weather stations | Latest weather observations for WA | Other Formats
Station Details ID: 010692 Name: NEWDEGATE RESEARCH STATION Lat: -33.11 Lon: 118.84 Height: 320.0 m
Data from the previous 72 hours. | See also: Recent months at Newdegate
Date/Time
WST
Temp
°C
App
Temp
°C
Dew
Point
°C
Rel
Hum
%
Delta-T
°C
Wind Press
QNH
hPa
Press
MSL
hPa
Rain since
9am
mm
Dir  Spd
km/h
Gust
km/h
Spd
kts
Gust
kts
27/05:00pm 22.5 19.5 4.1 30 9.1 NE 9 15 5 8 1024.9 1024.2 0.0
27/04:30pm 23.3 20.3 4.3 29 9.5 ENE 9 15 5 8 1024.7 1024.0 0.0
27/04:00pm 23.6 20.3 4.5 29 9.6 NNE 11 19 6 10 1024.6 1023.9 0.0
27/03:30pm 24.2 21.9 4.6 28 9.9 ENE 6 11 3 6 1024.6 1023.9 0.0
27/03:00pm 24.4 21.5 4.7 28 10.0 NNW 9 15 5 8 1024.6 1023.9 0.0
27/02:30pm 24.5 21.2 4.8 28 10.0 NNW 11 17 6 9 1024.6 1023.9 0.0
27/02:00pm 24.1 20.9 5.0 29 9.7 N 11 17 6 9 1024.9 1024.2 0.0
27/01:30pm 23.4 20.8 4.4 29 9.5 N 7 15 4 8 1025.0 1024.3 0.0
27/01:00pm 23.9 20.7 5.3 30 9.5 NE 11 17 6 9 1025.2 1024.5 0.0
27/12:30pm 23.7 20.6 5.6 31 9.3 NNE 11 19 6 10 1025.8 1025.1 0.0
27/12:00pm 22.8 20.3 4.8 31 9.0 NNW 7 17 4 9 1026.3 1025.6 0.0
27/11:30am 23.2 19.6 5.2 31 9.2 N 13 20 7 11 1026.9 1026.2 0.0
27/11:00am 22.9 19.3 6.6 35 8.4 NNW 15 20 8 11 1027.4 1026.7 0.0
27/10:30am 22.2 19.7 8.3 41 7.4 N 11 19 6 10 1027.7 1027.0 0.0
27/10:00am 20.3 18.7 8.9 48 6.1 NNE 7 13 4 7 1028.2 1027.6 0.0
27/09:30am 17.8 16.2 8.9 56 4.7 NNE 7 13 4 7 1028.5 1027.9 0.0
27/09:00am 16.6 15.1 9.1 61 3.9 NNE 7 11 4 6 1028.9 1028.2 0.0
27/08:30am 15.2 13.8 9.6 69 2.9 ENE 7 9 4 5 1028.9 1028.2 0.0
27/08:00am 13.8 12.8 10.2 79 1.9 ENE 6 7 3 4 1028.6 1028.0 0.0
27/07:30am 12.4 11.4 10.3 87 1.1 ENE 6 7 3 4 1028.6 1028.0 0.0
27/07:00am 10.0 8.8 7.9 87 1.0 E 4 4 2 2 1028.2 1027.6 0.0
27/06:30am 10.2 9.4 8.0 86 1.1 E 2 4 1 2 1028.0 1027.4 0.0
27/06:00am 10.8 9.3 8.6 86 1.1 E 6 7 3 4 1028.0 1027.4 0.0
27/05:30am 11.0 9.4 8.6 85 1.2 E 7 7 4 4 1027.9 1027.2 0.0
27/05:00am 11.4 9.9 9.0 85 1.2 ESE 7 7 4 4 1027.7 1027.0 0.0
27/04:30am 11.1 10.0 8.5 84 1.3 ESE 4 6 2 3 1027.6 1026.9 0.0
27/04:00am 11.7 10.2 9.3 85 1.2 ESE 7 7 4 4 1027.5 1026.8 0.0
27/03:30am 11.7 10.4 9.3 85 1.2 E 6 7 3 4 1027.4 1026.7 0.0
27/03:00am 11.7 10.4 9.1 84 1.3 E 6 7 3 4 1027.7 1027.0 0.0
27/02:30am 11.9 10.4 9.3 84 1.3 E 7 9 4 5 1027.8 1027.1 0.0
27/02:00am 11.9 10.4 9.1 83 1.4 E 7 7 4 4 1027.9 1027.2 0.0
27/01:30am 12.6 11.4 9.6 82 1.6 E 6 6 3 3 1027.8 1027.1 0.0
27/01:00am 12.6 11.2 9.4 81 1.6 E 7 7 4 4 1027.8 1027.1 0.0
27/12:30am 13.0 12.1 9.4 79 1.9 E 4 6 2 3 1027.8 1027.1 0.0
27/12:00am 13.1 11.8 9.2 77 2.0 E 6 6 3 3 1027.8 1027.1 0.0
 
Date/Time
WST
Temp
°C
App
Temp
°C
Dew
Point
°C
Rel
Hum
%
Delta-T
°C
Wind Press
QNH
hPa
Press
MSL
hPa
Rain since
9am
mm
Dir  Spd
km/h
Gust
km/h
Spd
kts
Gust
kts
26/11:30pm 13.6 12.4 9.5 76 2.1 ESE 6 7 3 4 1027.7 1027.0 0.0
26/11:00pm 13.8 12.4 9.6 76 2.2 E 7 9 4 5 1027.9 1027.2 0.0
26/10:30pm 14.2 12.9 9.8 75 2.3 ESE 7 9 4 5 1028.1 1027.5 0.0
26/10:00pm 14.5 13.1 9.7 73 2.5 ESE 7 9 4 5 1028.0 1027.4 0.0
26/09:30pm 15.3 13.6 9.7 69 3.0 E 9 11 5 6 1027.8 1027.1 0.0
26/09:00pm 15.7 14.3 9.4 66 3.3 ESE 7 11 4 6 1027.6 1026.9 0.0
26/08:30pm 16.0 13.5 8.0 59 4.1 ESE 11 15 6 8 1027.2 1026.5 0.0
26/08:00pm 16.5 14.2 7.4 55 4.6 SE 9 15 5 8 1027.0 1026.3 0.0
26/07:30pm 16.4 14.1 7.3 55 4.6 SSE 9 11 5 6 1027.1 1026.4 0.0
26/07:00pm 16.4 14.4 7.1 54 4.7 SSE 7 9 4 5 1026.9 1026.2 0.0
26/06:30pm 16.7 14.6 6.8 52 5.0 SSE 7 9 4 5 1026.7 1026.0 0.0
26/06:00pm 16.2 13.8 5.2 48 5.3 SSE 7 9 4 5 1026.3 1025.6 0.0
26/05:30pm 18.2 16.3 4.7 41 6.6 SSE 4 6 2 3 1026.2 1025.5 0.0
26/05:00pm 19.4 17.0 5.1 39 7.0 ESE 7 9 4 5 1026.1 1025.4 0.0
26/04:30pm 20.0 17.4 4.1 35 7.7 ESE 7 9 4 5 1026.2 1025.5 0.0
26/04:00pm 20.3 17.9 4.4 35 7.8 ESE 6 13 3 7 1026.2 1025.5 0.0
26/03:30pm 20.8 18.4 5.2 36 7.8 SE 7 13 4 7 1026.1 1025.4 0.0
26/03:00pm 21.5 19.8 5.8 36 7.9 NNE 4 7 2 4 1026.0 1025.3 0.0
26/02:30pm 21.2 19.1 5.6 36 7.9 ENE 6 11 3 6 1026.1 1025.4 0.0
26/02:00pm 21.4 19.0 4.5 33 8.3 ENE 6 13 3 7 1026.1 1025.4 0.0
26/01:30pm 20.3 18.2 5.9 39 7.3 NNE 6 9 3 5 1026.2 1025.5 0.0
26/01:00pm 20.0 17.9 5.6 39 7.2 SE 6 15 3 8 1026.6 1025.9 0.0
26/12:30pm 20.3 18.6 5.9 39 7.3 NNE 4 7 2 4 1026.9 1026.2 0.0
26/12:00pm 20.6 18.1 6.5 40 7.2 NNE 9 13 5 7 1027.3 1026.6 0.0
26/11:30am 19.9 17.9 7.0 43 6.6 NW 7 11 4 6 1027.8 1027.1 0.0
26/11:00am 19.3 17.0 7.4 46 6.1 NNW 9 13 5 7 1028.1 1027.5 0.0
26/10:30am 20.2 18.0 9.2 49 5.9 NNE 11 19 6 10 1028.4 1027.8 0.0
26/10:00am 18.3 15.3 9.1 55 4.9 NNE 15 22 8 12 1028.6 1028.0 0.0
26/09:30am 16.3 13.2 8.8 61 3.9 NNE 15 19 8 10 1028.7 1028.1 0.0
26/09:00am 15.3 13.3 10.1 71 2.7 NE 11 15 6 8 1029.1 1028.4 0.0
26/08:30am 13.3 12.5 11.7 90 0.9 NNE 7 11 4 6 1029.0 1028.3 0.0
26/08:00am 10.4 9.9 9.2 92 0.6 NNE 2 4 1 2 1028.7 1028.1 0.0
26/07:30am 8.9 8.4 7.8 93 0.5 CALM 0 0 0 0 1028.3 1027.7 0.0
26/07:00am 4.4 2.9 3.1 91 0.5 CALM 0 0 0 0 1028.1 1027.5 0.0
26/06:30am 4.1 2.6 2.8 91 0.5 CALM 0 0 0 0 1027.9 1027.2 0.0
26/06:00am 3.8 2.2 2.3 90 0.6 CALM 0 0 0 0 1028.0 1027.4 0.0
26/05:30am 5.7 4.4 4.2 90 0.7 CALM 0 0 0 0 1028.0 1027.4 0.0
26/05:00am 6.3 5.1 4.8 90 0.7 CALM 0 0 0 0 1027.9 1027.2 0.0
26/04:30am 7.0 4.8 5.5 90 0.7 S 6 7 3 4 1027.9 1027.2 0.0
26/04:00am 7.8 4.9 6.3 90 0.7 SSE 11 13 6 7 1027.8 1027.1 0.0
26/03:30am 6.8 4.0 5.3 90 0.7 S 9 13 5 7 1027.6 1026.9 0.0
26/03:00am 7.3 5.6 5.9 91 0.6 SSE 4 6 2 3 1027.6 1026.9 0.0
26/02:30am 5.8 3.7 4.1 89 0.7 SE 4 6 2 3 1027.7 1027.0 0.0
26/02:00am 5.2 3.8 3.4 88 0.8 CALM 0 0 0 0 1027.7 1027.0 0.0
26/01:30am 5.0 3.5 2.9 86 0.9 CALM 0 0 0 0 1027.6 1026.9 0.0
26/01:00am 6.6 5.3 4.3 85 1.0 CALM 0 0 0 0 1027.6 1026.9 0.0
26/12:30am 8.0 7.1 6.0 87 0.9 CALM 0 4 0 2 1027.6 1026.9 0.0
26/12:00am 7.7 5.9 5.3 85 1.1 ESE 4 7 2 4 1027.6 1026.9 0.0
 
Date/Time
WST
Temp
°C
App
Temp
°C
Dew
Point
°C
Rel
Hum
%
Delta-T
°C
Wind Press
QNH
hPa
Press
MSL
hPa
Rain since
9am
mm
Dir  Spd
km/h
Gust
km/h
Spd
kts
Gust
kts
25/11:30pm 9.3 8.2 6.7 84 1.2 ENE 2 4 1 2 1027.4 1026.7 0.0
25/11:00pm 9.6 7.7 6.7 82 1.4 ESE 6 7 3 4 1027.5 1026.8 0.0
25/10:30pm 10.0 8.8 6.5 79 1.7 ESE 2 6 1 3 1027.6 1026.9 0.0
25/10:00pm 11.1 9.3 7.2 77 1.9 SE 6 9 3 5 1027.4 1026.7 0.0
25/09:30pm 11.5 8.7 7.0 74 2.2 SE 11 15 6 8 1027.3 1026.6 0.0
25/09:00pm 10.6 9.8 6.6 76 1.9 CALM 0 0 0 0 1026.9 1026.2 0.0
25/08:30pm 8.6 6.0 3.2 69 2.4 SSE 6 7 3 4 1026.6 1025.9 0.0
25/08:00pm 11.4 8.6 5.3 66 2.8 SSE 9 11 5 6 1026.4 1025.7 0.0
25/07:30pm 13.5 10.3 6.8 64 3.3 S 13 15 7 8 1026.1 1025.4 0.0
25/07:00pm 11.9 9.2 5.5 65 3.0 S 9 11 5 6 1026.0 1025.3 0.0
25/06:30pm 12.5 9.7 5.2 61 3.4 S 9 11 5 6 1025.6 1024.9 0.0
25/06:00pm 13.1 10.5 3.2 51 4.5 ESE 6 7 3 4 1025.0 1024.3 0.0
25/05:30pm 16.9 14.4 4.9 45 5.8 ESE 7 7 4 4 1024.9 1024.2 0.0
25/05:00pm 19.2 16.0 5.3 40 6.9 E 11 15 6 8 1024.8 1024.1 0.0
25/04:30pm 20.0 16.8 4.9 37 7.5 ESE 11 19 6 10 1024.5 1023.8 0.0
25/04:00pm 20.6 17.7 4.6 35 7.9 ESE 9 17 5 9 1024.6 1023.9 0.0
25/03:30pm 20.9 17.2 4.5 34 8.1 ESE 13 24 7 13 1024.4 1023.7 0.0
25/03:00pm 20.8 17.4 4.0 33 8.2 ESE 11 20 6 11 1024.2 1023.5 0.0
25/02:30pm 20.7 16.8 3.4 32 8.4 SSE 13 19 7 10 1024.1 1023.4 0.0
25/02:00pm 20.8 17.6 3.1 31 8.5 SSE 9 17 5 9 1024.1 1023.4 0.0
25/01:30pm 20.2 16.3 1.1 28 8.8 SSE 11 20 6 11 1024.4 1023.7 0.0
25/01:00pm 20.1 16.9 2.9 32 8.2 S 9 15 5 8 1024.6 1023.9 0.0
25/12:30pm 18.7 14.8 1.2 31 8.0 SE 11 19 6 10 1025.0 1024.3 0.0
25/12:00pm 19.8 17.6 5.1 38 7.3 SE 6 13 3 7 1025.3 1024.7 0.0
25/11:30am 18.7 15.8 6.5 45 6.2 SSE 11 17 6 9 1025.9 1025.2 0.0
25/11:00am 17.2 14.7 6.7 50 5.3 SSW 9 17 5 9 1026.4 1025.7 0.0
25/10:30am 17.1 15.6 8.3 56 4.6 S 6 13 3 7 1026.8 1026.1 0.0
25/10:00am 16.1 14.3 7.8 58 4.2 S 7 22 4 12 1026.8 1026.1 0.0
25/09:30am 15.4 12.9 8.4 63 3.6 SSE 11 15 6 8 1026.8 1026.1 0.0
25/09:00am 14.4 11.9 8.4 67 3.0 S 11 15 6 8 1026.9 1026.2 0.0
25/08:30am 13.0 10.3 9.1 77 2.0 S 13 17 7 9 1026.8 1026.1 0.0
25/08:00am 12.4 11.3 10.8 90 0.8 SSE 7 11 4 6 1026.4 1025.7 0.0
25/07:30am 10.1 9.8 8.5 90 0.8 CALM 0 2 0 1 1025.9 1025.2 0.0
25/07:00am 9.0 7.3 7.5 90 0.7 S 6 7 3 4 1025.4 1024.8 0.0
25/06:30am 9.2 6.6 7.6 90 0.8 SSW 11 13 6 7 1025.0 1024.3 0.0
25/06:00am 9.7 7.2 8.1 90 0.8 SSW 11 13 6 7 1024.9 1024.2 0.0
25/05:30am 9.7 7.6 8.1 90 0.8 SSW 9 13 5 7 1024.6 1023.9 0.0
25/05:00am 8.8 6.5 7.3 90 0.7 SSW 9 11 5 6 1024.3 1023.6 0.0
25/04:30am 8.6 6.7 6.7 88 0.9 S 6 7 3 4 1024.0 1023.3 0.0
25/04:00am 9.8 8.0 8.1 89 0.8 S 7 9 4 5 1023.9 1023.2 0.0
25/03:30am 10.6 7.9 8.9 89 0.9 SSW 13 17 7 9 1023.8 1023.1 0.0
25/03:00am 10.8 7.8 9.1 89 0.9 S 15 19 8 10 1023.7 1023.0 0.0
25/02:30am 10.9 8.7 9.2 89 0.9 SSW 11 15 6 8 1023.7 1023.0 0.0
25/02:00am 11.0 9.2 9.3 89 0.9 SSW 9 11 5 6 1023.6 1022.9 0.0
25/01:30am 10.5 9.0 8.4 87 1.0 S 6 9 3 5 1023.2 1022.5 0.0
25/01:00am 11.6 9.8 9.5 87 1.1 SSW 9 13 5 7 1023.4 1022.7 0.0
25/12:30am 12.0 10.2 9.6 85 1.2 S 9 11 5 6 1023.3 1022.6 0.0
25/12:00am 12.9 11.7 10.4 85 1.3 SE 7 9 4 5 1023.3 1022.6 0.0
 
Date/Time
WST
Temp
°C
App
Temp
°C
Dew
Point
°C
Rel
Hum
%
Delta-T
°C
Wind Press
QNH
hPa
Press
MSL
hPa
Rain since
9am
mm
Dir  Spd
km/h
Gust
km/h
Spd
kts
Gust
kts
24/11:30pm 12.7 11.4 10.1 84 1.4 S 7 9 4 5 1023.2 1022.5 0.0
24/11:00pm 13.0 11.0 10.2 83 1.5 SSE 11 13 6 7 1023.4 1022.7 0.0
24/10:30pm 13.5 10.8 10.3 81 1.7 SSE 15 19 8 10 1023.5 1022.8 0.0
24/10:00pm 14.0 11.6 11.5 85 1.3 SSE 15 19 8 10 1023.7 1023.0 0.0
24/09:30pm 13.5 10.2 11.0 85 1.3 SSE 19 28 10 15 1023.4 1022.7 0.0
24/09:00pm 13.6 10.3 10.8 83 1.5 S 19 24 10 13 1023.0 1022.3 0.0
24/08:30pm 14.2 11.7 11.2 82 1.6 SSE 15 22 8 12 1022.6 1021.8 0.0
24/08:00pm 14.8 12.0 11.2 79 1.9 SSE 17 24 9 13 1022.3 1021.5 0.0
24/07:30pm 16.0 12.6 11.4 74 2.5 SSE 20 28 11 15 1021.8 1021.1 0.0
24/07:00pm 16.1 12.2 8.8 62 3.8 S 19 28 10 15 1021.7 1021.0 0.0
24/06:30pm 14.3 11.8 6.4 59 3.9 S 9 11 5 6 1021.3 1020.6 0.0
24/06:00pm 16.1 13.7 6.8 54 4.6 SSW 9 11 5 6 1020.9 1020.2 0.0
24/05:30pm 18.1 15.5 6.0 45 6.0 SSW 9 11 5 6 1020.8 1020.1 0.0

Other Formats:

Comma delimited format used in spreadsheet applications
http://www.bom.gov.au/fwo/IDW60801/IDW60801.94628.axf

JavaScript Object Notation format (JSON) in row-major order
http://www.bom.gov.au/fwo/IDW60801/IDW60801.94628.json